Terminal Aerodrome Forecast
Issued by NWS

Home | Current Version | Previous Version | Text Only | Print | Product List | Glossary On
Versions: 1 2 3 4 5 6 7 8 9 10 11 12 13 14 15 16 17 18 19 20 21
000
FTUS41 KBTV 132300
TAFMSS
TAF
KMSS 132324Z 1400/1424 22010G18KT P6SM BKN035
     FM140300 24007KT 4SM BR SCT015
     FM140800 24004KT 2SM BR BKN015
     FM141300 23010KT P6SM SCT050=

USA.gov is the U.S. government's official web portal to all federal, state and local government web resources and services.